This is the latest recevied weather packets stored in our database for station/object DH4BS-10. If no packets are shown the sender has not sent any weather packets the latest 10 day(s).
| Time | Temp. | Humidity | Pressure | Rain* | Wind** | Luminosity | Snow |
|---|---|---|---|---|---|---|---|
| 1777511637 | 16.67° C | 35% | 1031.2 hPa | - | - | - | - |
| 1777508036 | 17.78° C | 36% | 1030.7 hPa | - | - | - | - |
| 1777504436 | 18.33° C | 35% | 1031 hPa | - | - | - | - |
| 1777500836 | 18.89° C | 35% | 1030.7 hPa | - | - | - | - |
| 1777497236 | 20.56° C | 35% | 1030.4 hPa | - | - | - | - |
| 1777493636 | 25.56° C | 32% | 1030.1 hPa | - | - | - | - |
| 1777487868 | 23.33° C | 35% | 1029.2 hPa | - | - | - | - |
| 1777484268 | 23.89° C | 35% | 1028.6 hPa | - | - | - | - |
| 1777480667 | 26.67° C | 33% | 1028.4 hPa | - | - | - | - |
| 1777477071 | 25° C | 35% | 1028.3 hPa | - | - | - | - |
| 1777473471 | 25° C | 36% | 1028.3 hPa | - | - | - | - |
| 1777469871 | 25° C | 35% | 1028.2 hPa | - | - | - | - |
| 1777466271 | 24.44° C | 35% | 1028.2 hPa | - | - | - | - |
| 1777462671 | 23.33° C | 35% | 1028.4 hPa | - | - | - | - |
| 1777459071 | 22.22° C | 36% | 1028.6 hPa | - | - | - | - |
| 1777455470 | 20.56° C | 36% | 1028.6 hPa | - | - | - | - |
| 1777451870 | 18.89° C | 36% | 1028.5 hPa | - | - | - | - |
| 1777448270 | 17.78° C | 36% | 1028.5 hPa | - | - | - | - |
| 1777444670 | 16.11° C | 36% | 1028 hPa | - | - | - | - |
| 1777441070 | 15.56° C | 37% | 1027.5 hPa | - | - | - | - |
| 1777437470 | 15.56° C | 36% | 1027 hPa | - | - | - | - |
| 1777433869 | 16.11° C | 37% | 1026.9 hPa | - | - | - | - |
| 1777430269 | 16.67° C | 37% | 1026.8 hPa | - | - | - | - |
| 1777426669 | 17.22° C | 36% | 1026.9 hPa | - | - | - | - |
| 1777423069 | 18.33° C | 37% | 1027.1 hPa | - | - | - | - |
* Rain since midnight (hover to see other rain measurements)
** Current wind speed in m/s (hover to see current wind gust speed)